createdAt,value
2022-12-15T09:26:02.128Z,11.57
2022-12-15T09:27:04.703Z,12.40
2022-12-15T09:28:07.512Z,15.18
2022-12-15T09:29:12.782Z,15.23
2022-12-15T09:30:15.908Z,15.55
2022-12-15T09:31:21.199Z,16.52
2022-12-15T09:32:23.969Z,16.40
2022-12-15T09:33:26.932Z,16.33
2022-12-15T09:34:29.913Z,17.15
2022-12-15T09:35:32.569Z,17.35
2022-12-15T09:36:35.707Z,15.85
2022-12-15T09:37:38.130Z,18.00
2022-12-15T09:38:42.478Z,17.25
2022-12-15T09:39:45.744Z,18.55
2022-12-15T09:40:49.998Z,17.42
2022-12-15T09:41:57.285Z,16.50
2022-12-15T09:43:25.613Z,16.48
2022-12-15T09:44:23.762Z,16.83
2022-12-15T09:45:33.941Z,17.40
2022-12-15T09:46:59.986Z,12.40
2022-12-15T09:48:05.932Z,16.23
2022-12-15T09:49:15.150Z,16.27
2022-12-15T09:50:21.126Z,17.05
2022-12-15T09:51:34.267Z,16.45
2022-12-15T09:52:49.043Z,15.95
2022-12-15T09:53:56.189Z,16.77
2022-12-15T09:55:01.606Z,16.60
2022-12-15T09:56:08.113Z,15.57
2022-12-15T09:57:20.990Z,17.48
2022-12-15T09:58:40.617Z,16.38
2022-12-15T09:59:59.907Z,15.45
2022-12-15T10:01:13.619Z,16.45
2022-12-15T10:02:36.602Z,15.48
2022-12-15T10:03:52.175Z,14.65
2022-12-15T10:05:05.336Z,14.85
2022-12-15T10:06:16.665Z,15.63
2022-12-15T10:07:29.820Z,15.77
2022-12-15T10:08:36.603Z,15.20
2022-12-15T10:09:39.534Z,16.30
2022-12-15T10:10:51.050Z,15.18
2022-12-15T10:11:58.794Z,15.25
2022-12-15T10:13:10.684Z,15.40
2022-12-15T10:14:23.859Z,15.23
2022-12-15T10:15:29.449Z,15.55
2022-12-15T10:16:38.651Z,16.17
2022-12-15T10:17:50.300Z,15.60
2022-12-15T10:19:01.960Z,14.68
2022-12-15T10:20:15.572Z,15.73
2022-12-15T10:21:17.425Z,15.77
2022-12-15T10:22:24.213Z,16.73
2022-12-15T10:23:26.034Z,15.38
2022-12-15T10:25:08.076Z,15.18
2022-12-15T10:26:00.753Z,16.77
2022-12-15T10:27:16.482Z,15.80
2022-12-15T10:29:00.289Z,15.80
2022-12-15T10:30:05.542Z,16.40
2022-12-15T10:31:16.255Z,16.27
2022-12-15T10:32:20.501Z,12.25
2022-12-15T10:33:26.265Z,16.48
2022-12-15T10:34:30.541Z,16.60
2022-12-15T10:35:35.091Z,16.65
2022-12-15T10:36:37.020Z,16.50
2022-12-15T10:37:40.112Z,16.15
2022-12-15T10:38:45.428Z,16.27
2022-12-15T10:39:50.229Z,16.20
2022-12-15T10:40:59.550Z,16.45
2022-12-15T10:42:14.895Z,16.88
2022-12-15T10:43:35.695Z,16.50
2022-12-15T10:44:41.473Z,16.23
2022-12-15T10:45:44.705Z,16.80
2022-12-15T10:46:47.283Z,17.48
2022-12-15T10:47:58.977Z,17.38
2022-12-15T10:49:23.042Z,13.48
2022-12-15T10:50:27.591Z,16.30
2022-12-15T10:51:32.552Z,16.55
2022-12-15T10:52:39.057Z,16.95
2022-12-15T10:53:45.012Z,16.27
2022-12-15T10:54:55.586Z,16.33
2022-12-15T10:56:01.392Z,15.93
2022-12-15T10:57:16.972Z,16.23
2022-12-15T10:58:22.390Z,16.80
2022-12-15T10:59:26.253Z,15.40
2022-12-15T11:00:30.765Z,16.35
2022-12-15T11:01:35.905Z,17.33
2022-12-15T11:02:38.016Z,17.17
2022-12-15T11:03:41.845Z,17.50
2022-12-15T11:04:57.111Z,17.02
2022-12-15T11:06:01.074Z,15.48
2022-12-15T11:07:05.267Z,16.30
2022-12-15T11:08:16.843Z,16.95
2022-12-15T11:09:29.551Z,17.63
2022-12-15T11:10:54.185Z,17.08
2022-12-15T11:12:14.285Z,16.20
2022-12-15T11:13:17.924Z,13.02
2022-12-15T11:14:24.179Z,15.77
2022-12-15T11:15:50.845Z,16.25
2022-12-15T11:16:55.270Z,15.68
2022-12-15T11:18:02.720Z,16.10
2022-12-15T11:19:09.051Z,15.90
2022-12-15T11:20:21.822Z,16.60
2022-12-15T11:21:28.940Z,16.83
2022-12-15T11:22:40.760Z,16.15
2022-12-15T11:23:53.742Z,15.27
2022-12-15T11:25:03.063Z,16.52
2022-12-15T11:26:13.808Z,16.77
2022-12-15T11:28:31.639Z,15.30
2022-12-15T11:29:45.900Z,15.05
2022-12-15T11:30:57.449Z,16.35
2022-12-15T11:32:06.675Z,15.32
2022-12-15T11:33:11.073Z,12.60
2022-12-15T11:34:17.376Z,15.45
2022-12-15T11:35:26.838Z,15.00
2022-12-15T11:36:57.994Z,14.82
2022-12-15T11:38:10.210Z,14.50
2022-12-15T11:39:21.419Z,14.20
2022-12-15T11:40:34.346Z,14.45
2022-12-15T11:41:45.154Z,14.38
2022-12-15T11:44:17.486Z,14.70
2022-12-15T11:45:25.634Z,13.68
2022-12-15T11:46:31.668Z,13.32
2022-12-15T11:47:44.873Z,14.52
2022-12-15T11:49:09.514Z,14.10
2022-12-15T11:50:24.975Z,13.45
2022-12-15T11:51:38.834Z,13.30
2022-12-15T11:52:55.649Z,14.23
2022-12-15T11:54:14.788Z,13.85
2022-12-15T11:55:27.632Z,14.38
2022-12-15T11:56:36.307Z,14.52
2022-12-15T11:57:54.627Z,13.25
2022-12-15T11:59:25.911Z,13.55
2022-12-15T12:01:58.780Z,14.32
2022-12-15T12:03:27.780Z,14.32
2022-12-15T12:04:40.362Z,13.00
2022-12-15T12:06:04.064Z,14.35
2022-12-15T12:07:15.688Z,14.45
2022-12-15T12:08:35.513Z,13.85
2022-12-15T12:09:48.682Z,14.93
2022-12-15T12:10:58.283Z,13.57
2022-12-15T12:12:13.364Z,13.63
2022-12-15T12:13:23.972Z,13.70
2022-12-15T12:14:38.050Z,15.07
2022-12-15T12:15:50.730Z,13.90
2022-12-15T12:17:01.665Z,13.43
2022-12-15T12:18:07.520Z,14.13
2022-12-15T12:19:14.540Z,13.23
2022-12-15T12:20:21.361Z,14.07
2022-12-15T12:21:28.177Z,14.40
2022-12-15T12:22:35.696Z,13.80
2022-12-15T12:23:46.185Z,13.55
2022-12-15T12:24:53.493Z,13.93
2022-12-15T12:26:05.846Z,13.48
2022-12-15T12:27:16.758Z,13.18
2022-12-15T12:28:25.063Z,13.10
2022-12-15T12:29:34.028Z,13.73
2022-12-15T12:30:45.393Z,13.40
2022-12-15T12:32:04.911Z,13.88
2022-12-15T12:33:17.037Z,13.70
2022-12-15T12:34:27.443Z,13.43
2022-12-15T12:35:38.528Z,12.95
2022-12-15T12:36:43.028Z,12.80
2022-12-15T12:37:54.175Z,13.30
2022-12-15T12:39:01.230Z,14.05
2022-12-15T12:40:08.676Z,12.88
2022-12-15T12:41:18.636Z,13.60
2022-12-15T12:42:26.407Z,13.25
2022-12-15T12:43:34.938Z,13.20
2022-12-15T12:44:39.244Z,13.07
2022-12-15T12:45:50.239Z,13.18
2022-12-15T12:46:56.326Z,13.32
2022-12-15T12:48:03.961Z,13.32
2022-12-15T12:49:14.666Z,12.73
2022-12-15T12:50:28.219Z,13.00
2022-12-15T12:51:32.505Z,12.88
2022-12-15T12:52:37.591Z,13.02
2022-12-15T12:53:42.002Z,12.73
2022-12-15T12:54:57.884Z,14.13
2022-12-15T12:56:01.843Z,13.82
2022-12-15T12:57:30.504Z,13.95
2022-12-15T12:58:38.358Z,13.70
2022-12-15T12:59:42.875Z,13.73
2022-12-15T13:01:06.418Z,13.48
2022-12-15T13:02:51.046Z,14.10
2022-12-15T13:04:07.630Z,13.02
2022-12-15T13:05:25.112Z,13.45
2022-12-15T13:07:02.380Z,14.65
2022-12-15T13:08:30.479Z,12.77
2022-12-15T13:09:42.330Z,15.50
2022-12-15T13:10:48.219Z,13.85
2022-12-15T13:11:58.939Z,13.60
2022-12-15T13:13:36.459Z,13.73
2022-12-15T13:16:19.017Z,14.70
2022-12-15T13:19:03.390Z,14.80
2022-12-15T13:20:30.971Z,14.77
2022-12-15T13:21:56.059Z,13.88
2022-12-15T13:23:32.440Z,15.23
2022-12-15T13:24:37.461Z,14.18
2022-12-15T13:25:41.900Z,15.82
2022-12-15T13:26:48.572Z,14.98
2022-12-15T13:27:52.676Z,16.58
2022-12-15T13:28:57.951Z,14.95
2022-12-15T13:30:01.815Z,14.70
2022-12-15T13:31:28.567Z,15.07
2022-12-15T13:32:36.740Z,15.77
2022-12-15T13:33:45.537Z,15.70
2022-12-15T13:34:48.193Z,15.90
2022-12-15T13:35:51.758Z,14.80
2022-12-15T13:37:27.233Z,15.18
2022-12-15T13:38:53.653Z,14.95
2022-12-15T13:40:00.414Z,14.35
2022-12-15T13:41:22.587Z,15.75
2022-12-15T13:42:45.628Z,16.08
2022-12-15T13:43:56.039Z,11.70
2022-12-15T13:45:38.025Z,14.73
2022-12-15T13:46:43.492Z,15.18
2022-12-15T13:47:53.621Z,15.65
2022-12-15T13:49:07.737Z,11.80
2022-12-15T13:50:15.258Z,16.00
2022-12-15T13:51:25.048Z,15.68
2022-12-15T13:53:16.339Z,15.35
2022-12-15T13:53:59.364Z,15.00
2022-12-15T13:55:03.519Z,16.05
2022-12-15T13:56:35.014Z,16.33
2022-12-15T13:57:52.526Z,16.00
2022-12-15T13:59:02.487Z,15.43
2022-12-15T14:00:18.327Z,16.27
2022-12-15T14:01:32.765Z,17.30
2022-12-15T14:02:37.928Z,15.82
2022-12-15T14:03:40.841Z,15.43
2022-12-15T14:04:43.450Z,16.65
2022-12-15T14:05:51.206Z,16.17
2022-12-15T14:06:56.011Z,15.73
2022-12-15T14:08:00.760Z,16.80
2022-12-15T14:09:03.911Z,15.57
2022-12-15T14:10:16.811Z,17.45
2022-12-15T14:11:51.219Z,17.50
2022-12-15T14:12:52.021Z,17.17
2022-12-15T14:13:54.715Z,16.95
2022-12-15T14:14:57.457Z,16.20
2022-12-15T14:16:04.038Z,17.35
2022-12-15T14:17:09.694Z,16.55
2022-12-15T14:18:26.719Z,17.58
2022-12-15T14:19:38.842Z,15.73
2022-12-15T14:20:42.121Z,16.40
2022-12-15T14:21:50.361Z,16.02
2022-12-15T14:22:54.459Z,15.98
2022-12-15T14:24:36.343Z,17.80
2022-12-15T14:25:23.598Z,16.30
2022-12-15T14:26:30.722Z,16.35
2022-12-15T14:27:34.822Z,16.88
2022-12-15T14:28:40.501Z,18.08
2022-12-15T14:29:42.091Z,16.58
2022-12-15T14:30:44.810Z,17.52
2022-12-15T14:31:51.633Z,17.60
2022-12-15T14:32:58.879Z,17.58
2022-12-15T14:34:04.611Z,17.17
2022-12-15T14:35:13.802Z,16.90
2022-12-15T14:36:18.622Z,16.13
2022-12-15T14:37:21.107Z,17.25
2022-12-15T14:38:27.365Z,16.77
2022-12-15T14:39:37.016Z,17.75
2022-12-15T14:40:42.380Z,17.30
2022-12-15T14:41:48.925Z,17.20
2022-12-15T14:42:53.986Z,18.35
2022-12-15T14:44:36.196Z,17.42
2022-12-15T14:45:32.189Z,17.35
2022-12-15T14:46:35.099Z,16.38
2022-12-15T14:47:37.189Z,18.05
2022-12-15T14:48:43.015Z,18.58
2022-12-15T14:49:48.106Z,16.50
2022-12-15T14:50:51.252Z,16.52
2022-12-15T14:52:02.787Z,17.33
2022-12-15T14:53:14.361Z,16.63
2022-12-15T14:54:30.724Z,16.98
2022-12-15T14:55:35.302Z,16.60
2022-12-15T14:56:37.924Z,16.48
2022-12-15T14:57:44.245Z,16.30
2022-12-15T14:58:47.333Z,16.20
2022-12-15T14:59:53.035Z,16.70
2022-12-15T15:00:57.324Z,15.90
2022-12-15T15:02:03.778Z,15.82
2022-12-15T15:03:10.416Z,14.82
2022-12-15T15:03:20.298Z,16.05
2022-12-15T15:04:26.279Z,15.07
2022-12-15T15:05:29.180Z,16.73
2022-12-15T15:06:37.468Z,15.52
2022-12-15T15:07:40.752Z,16.58
2022-12-15T15:08:46.397Z,17.38
2022-12-15T15:09:49.133Z,16.02
2022-12-15T15:10:54.181Z,16.33
2022-12-15T15:12:00.806Z,16.30
2022-12-15T15:13:04.081Z,15.90
2022-12-15T15:14:10.884Z,16.98
2022-12-15T15:15:19.556Z,16.52
2022-12-15T15:16:21.326Z,15.95
2022-12-15T15:17:27.175Z,16.88
2022-12-15T15:18:29.794Z,16.33
2022-12-15T15:19:39.096Z,16.45
2022-12-15T15:20:42.273Z,16.40
2022-12-15T15:21:45.745Z,16.30
2022-12-15T15:23:03.844Z,17.02
2022-12-15T15:24:26.012Z,16.25
2022-12-15T15:25:39.949Z,14.82
2022-12-15T15:26:44.123Z,15.65
2022-12-15T15:27:46.829Z,16.13
2022-12-15T15:28:49.463Z,16.52
2022-12-15T15:29:51.496Z,16.90
2022-12-15T15:30:58.049Z,16.40
2022-12-15T15:32:07.717Z,15.63
2022-12-15T15:33:12.805Z,17.20
2022-12-15T15:34:15.550Z,17.25
2022-12-15T15:35:17.517Z,17.27
2022-12-15T15:36:20.200Z,17.48
2022-12-15T15:37:26.392Z,17.00
2022-12-15T15:38:34.885Z,16.70
2022-12-15T15:39:38.302Z,17.58
2022-12-15T15:40:41.339Z,17.65
2022-12-15T15:41:43.936Z,17.95
2022-12-15T15:42:46.777Z,17.77
2022-12-15T15:43:49.364Z,18.35
2022-12-15T15:44:51.933Z,18.65
2022-12-15T15:46:02.751Z,16.30
2022-12-15T15:47:05.986Z,17.45
2022-12-15T15:48:11.868Z,17.83
2022-12-15T15:49:17.905Z,17.35
2022-12-15T15:50:27.719Z,17.70
2022-12-15T15:51:32.955Z,13.30
2022-12-15T15:52:34.716Z,17.13
2022-12-15T15:53:38.703Z,17.48
2022-12-15T15:54:40.400Z,17.23
2022-12-15T15:55:44.257Z,17.05
2022-12-15T15:56:46.272Z,17.45
2022-12-15T15:57:48.831Z,18.63
2022-12-15T15:58:51.489Z,18.98
2022-12-15T15:59:54.078Z,18.25
2022-12-15T16:00:58.121Z,19.23
2022-12-15T16:02:00.642Z,19.13
2022-12-15T16:03:03.508Z,20.00
2022-12-15T16:04:07.463Z,19.83
2022-12-15T16:05:10.420Z,21.05
2022-12-15T16:06:17.961Z,20.00
2022-12-15T16:07:25.210Z,19.00
2022-12-15T16:08:32.940Z,19.70
2022-12-15T16:09:35.843Z,20.35
2022-12-15T16:10:38.498Z,22.05
2022-12-15T16:11:40.526Z,22.55
2022-12-15T16:12:46.485Z,21.45
2022-12-15T16:13:48.774Z,22.75
2022-12-15T16:14:51.563Z,21.25
2022-12-15T16:15:54.250Z,21.88
2022-12-15T16:16:57.629Z,19.38
2022-12-15T16:18:00.428Z,19.15
2022-12-15T16:19:03.433Z,18.48
2022-12-15T16:20:07.274Z,18.88
2022-12-15T16:21:13.979Z,19.73
2022-12-15T16:22:18.387Z,18.60
2022-12-15T16:23:23.733Z,22.00
2022-12-15T16:24:25.640Z,19.85
2022-12-15T16:25:39.019Z,20.85
2022-12-15T16:26:50.018Z,20.63
2022-12-15T16:27:51.624Z,22.58
2022-12-15T16:28:54.217Z,22.67
2022-12-15T16:29:55.956Z,19.83
2022-12-15T16:31:01.267Z,20.75
2022-12-15T16:32:04.685Z,20.05
2022-12-15T16:33:07.591Z,19.23
2022-12-15T16:34:09.388Z,19.23
2022-12-15T16:35:12.758Z,19.67
2022-12-15T16:36:15.427Z,23.10
2022-12-15T16:37:25.818Z,24.60
2022-12-15T16:38:31.098Z,17.42
2022-12-15T16:39:35.019Z,22.33
2022-12-15T16:40:39.596Z,20.35
2022-12-15T16:41:41.168Z,21.77
2022-12-15T16:42:43.998Z,21.00
2022-12-15T16:43:48.305Z,21.55
2022-12-15T16:44:51.302Z,21.33
2022-12-15T16:45:54.557Z,22.40
2022-12-15T16:46:59.102Z,22.52
2022-12-15T16:48:03.987Z,22.90
2022-12-15T16:49:05.893Z,23.17
2022-12-15T16:50:13.355Z,23.95
2022-12-15T16:51:27.167Z,24.55
2022-12-15T16:52:30.100Z,25.95
2022-12-15T16:53:35.302Z,23.55
2022-12-15T16:54:37.016Z,22.50
2022-12-15T16:55:40.278Z,22.17
2022-12-15T16:56:43.794Z,22.40
2022-12-15T16:57:47.417Z,22.02
2022-12-15T16:58:57.420Z,23.00
2022-12-15T17:00:16.431Z,22.77
2022-12-15T17:01:18.125Z,25.35
2022-12-15T17:02:27.236Z,24.70
2022-12-15T17:03:31.931Z,24.77
2022-12-15T17:04:33.723Z,22.77
2022-12-15T17:05:37.533Z,26.05
2022-12-15T17:06:39.477Z,24.60
2022-12-15T17:07:43.121Z,25.42
2022-12-15T17:08:49.065Z,24.30
2022-12-15T17:09:51.107Z,23.88
2022-12-15T17:10:54.503Z,23.58
2022-12-15T17:11:58.113Z,23.35
2022-12-15T17:13:05.760Z,21.65
2022-12-15T17:14:11.317Z,21.02
2022-12-15T17:15:22.901Z,21.30
2022-12-15T17:16:27.013Z,21.40
2022-12-15T17:17:31.164Z,21.30
2022-12-15T17:18:35.310Z,22.40
2022-12-15T17:19:37.180Z,21.58
2022-12-15T17:20:54.290Z,23.02
2022-12-15T17:21:57.613Z,23.02
2022-12-15T17:23:03.807Z,23.60
2022-12-15T17:24:10.074Z,23.15
2022-12-15T17:25:27.395Z,23.48
2022-12-15T17:26:43.295Z,24.08
2022-12-15T17:27:47.545Z,25.48
2022-12-15T17:28:50.674Z,23.52
2022-12-15T17:29:53.349Z,24.80
2022-12-15T17:30:57.536Z,26.48
2022-12-15T17:31:59.634Z,27.67
2022-12-15T17:33:02.288Z,29.13
2022-12-15T17:34:28.358Z,27.58
2022-12-15T17:35:30.958Z,24.33
2022-12-15T17:36:32.803Z,25.80
2022-12-15T17:37:35.672Z,26.30
2022-12-15T17:38:38.352Z,28.00
2022-12-15T17:39:41.922Z,29.13
2022-12-15T17:40:44.813Z,28.33
2022-12-15T17:42:04.339Z,28.45
2022-12-15T17:43:13.828Z,28.48
2022-12-15T17:44:38.373Z,27.92
2022-12-15T17:45:41.699Z,27.15
2022-12-15T17:46:44.361Z,28.00
2022-12-15T17:47:47.507Z,27.23
2022-12-15T17:48:50.252Z,26.70
2022-12-15T17:49:54.171Z,27.50
2022-12-15T17:50:56.763Z,25.40
2022-12-15T17:52:01.660Z,25.02
2022-12-15T17:53:06.277Z,25.77
2022-12-15T17:54:09.821Z,23.00
2022-12-15T17:55:20.270Z,23.90
2022-12-15T17:56:22.886Z,18.65
2022-12-15T17:57:25.785Z,23.30
2022-12-15T17:58:28.453Z,21.10
2022-12-15T17:59:33.621Z,21.75
2022-12-15T18:00:44.464Z,22.23
2022-12-15T18:01:52.132Z,20.35
2022-12-15T18:02:59.158Z,21.23
2022-12-15T18:04:05.029Z,21.65
2022-12-15T18:05:09.342Z,22.20
2022-12-15T18:06:15.386Z,22.80
2022-12-15T18:07:19.831Z,22.90
2022-12-15T18:08:24.308Z,22.50
2022-12-15T18:09:29.514Z,24.58
2022-12-15T18:10:34.539Z,24.65
2022-12-15T18:11:37.083Z,23.40
2022-12-15T18:12:38.704Z,22.25
2022-12-15T18:13:42.059Z,22.40
2022-12-15T18:14:44.495Z,20.92
2022-12-15T18:15:50.255Z,20.00
2022-12-15T18:16:52.017Z,19.63
2022-12-15T18:17:54.664Z,20.67
2022-12-15T18:18:57.430Z,20.60
2022-12-15T18:19:58.986Z,21.25
2022-12-15T18:21:09.006Z,22.52
2022-12-15T18:22:13.382Z,18.00
2022-12-15T18:23:17.822Z,23.30
2022-12-15T18:24:21.568Z,23.23
2022-12-15T18:25:26.868Z,22.48
2022-12-15T18:26:28.733Z,22.55
2022-12-15T18:27:31.372Z,22.10
2022-12-15T18:28:37.944Z,21.88
2022-12-15T18:29:39.520Z,22.48
2022-12-15T18:30:42.204Z,22.33
2022-12-15T18:31:45.435Z,24.70
2022-12-15T18:32:48.779Z,22.98
2022-12-15T18:33:51.518Z,23.63
2022-12-15T18:34:53.869Z,22.25
2022-12-15T18:35:56.514Z,21.80
2022-12-15T18:36:59.532Z,22.50
2022-12-15T18:38:02.156Z,20.70
2022-12-15T18:39:17.018Z,21.48
2022-12-15T18:40:21.952Z,23.00
2022-12-15T18:41:24.617Z,23.40
2022-12-15T18:42:26.272Z,24.40
2022-12-15T18:43:32.166Z,24.55
2022-12-15T18:44:34.437Z,22.83
2022-12-15T18:45:37.032Z,26.80
2022-12-15T18:46:42.058Z,29.73
2022-12-15T18:47:49.404Z,31.52
2022-12-15T18:48:55.980Z,33.28
2022-12-15T18:49:57.623Z,34.85
2022-12-15T18:51:03.394Z,31.73
2022-12-15T18:52:13.633Z,32.33
2022-12-15T18:53:19.698Z,25.52
2022-12-15T18:54:23.371Z,31.08
2022-12-15T18:55:28.301Z,30.33
2022-12-15T18:56:30.994Z,30.85
2022-12-15T18:57:35.880Z,28.90
2022-12-15T18:58:40.359Z,28.80
2022-12-15T18:59:41.937Z,28.80
2022-12-15T19:00:45.127Z,30.35
2022-12-15T19:01:49.368Z,29.85
2022-12-15T19:02:53.168Z,28.67
2022-12-15T19:03:56.054Z,29.80
2022-12-15T19:04:57.758Z,31.60
2022-12-15T19:06:03.147Z,31.15
2022-12-15T19:07:07.645Z,28.58
2022-12-15T19:08:13.267Z,28.08
2022-12-15T19:09:19.698Z,27.40
2022-12-15T19:10:21.376Z,26.45
2022-12-15T19:11:31.131Z,25.33
2022-12-15T19:12:32.851Z,20.52
2022-12-15T19:13:38.827Z,28.83
2022-12-15T19:14:40.501Z,33.85
2022-12-15T19:15:43.737Z,35.00
2022-12-15T19:17:06.580Z,38.03
2022-12-15T19:18:32.247Z,36.65
2022-12-15T19:19:54.685Z,33.10
2022-12-15T19:21:14.806Z,27.88
2022-12-15T19:22:28.017Z,19.85
2022-12-15T19:23:31.128Z,25.27
2022-12-15T19:24:51.688Z,25.60
2022-12-15T19:25:55.146Z,17.48
2022-12-15T19:26:56.732Z,23.63
2022-12-15T19:28:01.284Z,23.38
2022-12-15T19:29:15.837Z,23.02
2022-12-15T19:30:20.663Z,23.77
2022-12-15T19:31:23.281Z,23.45
2022-12-15T19:32:25.757Z,24.92
2022-12-15T19:33:28.377Z,23.67
2022-12-15T19:34:31.242Z,23.83
2022-12-15T19:35:33.371Z,25.02
2022-12-15T19:36:37.082Z,25.15
2022-12-15T19:37:45.523Z,25.02
2022-12-15T19:38:48.395Z,24.30
2022-12-15T19:39:50.549Z,24.77
2022-12-15T19:40:54.717Z,24.85
2022-12-15T19:41:57.436Z,24.20
2022-12-15T19:43:00.233Z,24.77
2022-12-15T19:44:02.989Z,24.98
2022-12-15T19:45:14.927Z,23.45
2022-12-15T19:46:19.759Z,24.45
2022-12-15T19:47:21.350Z,24.30
2022-12-15T19:48:24.610Z,25.58
2022-12-15T19:49:26.265Z,25.08
2022-12-15T19:50:36.236Z,25.65
2022-12-15T19:51:40.673Z,21.30
2022-12-15T19:52:47.160Z,25.15
2022-12-15T19:53:50.669Z,25.90
2022-12-15T19:54:52.334Z,24.58
2022-12-15T19:55:57.838Z,25.02
2022-12-15T19:56:59.617Z,25.75
2022-12-15T19:58:06.534Z,26.10
2022-12-15T19:59:18.238Z,26.42
2022-12-15T20:00:22.039Z,24.88
2022-12-15T20:01:24.738Z,23.38
2022-12-15T20:02:26.582Z,23.95
2022-12-15T20:03:31.113Z,23.88
2022-12-15T20:04:34.004Z,25.60
2022-12-15T20:05:36.936Z,26.40
2022-12-15T20:06:40.622Z,24.33
2022-12-15T20:07:43.883Z,24.08
2022-12-15T20:08:48.693Z,26.23
2022-12-15T20:09:50.372Z,26.13
2022-12-15T20:10:54.936Z,24.70
2022-12-15T20:11:56.546Z,23.55
2022-12-15T20:12:59.623Z,23.33
2022-12-15T20:14:03.093Z,23.90
2022-12-15T20:15:15.757Z,22.05
2022-12-15T20:16:20.704Z,22.75
2022-12-15T20:17:22.311Z,23.02
2022-12-15T20:18:24.910Z,23.65
2022-12-15T20:19:27.490Z,22.75
2022-12-15T20:20:30.966Z,23.73
2022-12-15T20:21:37.092Z,23.00
2022-12-15T20:22:38.754Z,24.10
2022-12-15T20:23:50.311Z,22.63
2022-12-15T20:24:52.995Z,22.67
2022-12-15T20:25:56.265Z,22.42
2022-12-15T20:26:58.214Z,23.73
2022-12-15T20:28:01.502Z,23.08
2022-12-15T20:29:04.414Z,23.33
2022-12-15T20:30:08.753Z,21.70
2022-12-15T20:31:15.897Z,21.73
2022-12-15T20:32:20.771Z,21.75
2022-12-15T20:33:23.578Z,22.48
2022-12-15T20:34:25.364Z,22.50
2022-12-15T20:35:28.506Z,21.75
2022-12-15T20:36:31.577Z,22.90
2022-12-15T20:37:33.288Z,20.67
2022-12-15T20:38:36.915Z,22.67
2022-12-15T20:39:40.206Z,21.55
2022-12-15T20:40:42.920Z,21.88
2022-12-15T20:41:47.439Z,22.73
2022-12-15T20:42:50.647Z,23.60
2022-12-15T20:43:54.848Z,25.42
2022-12-15T20:44:56.396Z,23.88
2022-12-15T20:46:03.380Z,22.65
2022-12-15T20:47:06.263Z,24.25
2022-12-15T20:48:13.027Z,23.23
2022-12-15T20:49:18.547Z,23.55
2022-12-15T20:50:27.032Z,22.45
2022-12-15T20:51:31.452Z,22.55
2022-12-15T20:52:33.465Z,22.05
2022-12-15T20:53:36.085Z,21.27
2022-12-15T20:54:38.769Z,23.38
2022-12-15T20:55:42.999Z,23.13
2022-12-15T20:56:46.086Z,22.13
2022-12-15T20:57:48.087Z,21.10
2022-12-15T20:58:50.789Z,22.30
2022-12-15T20:59:53.821Z,20.80
2022-12-15T21:00:56.469Z,23.33
2022-12-15T21:01:59.174Z,21.77
2022-12-15T21:03:01.139Z,23.00
2022-12-15T21:04:25.899Z,23.05
2022-12-15T21:05:28.506Z,21.75
2022-12-15T21:06:31.987Z,22.85
2022-12-15T21:07:33.666Z,22.10
2022-12-15T21:08:36.411Z,22.20
2022-12-15T21:09:38.083Z,21.60
2022-12-15T21:10:42.009Z,23.40
2022-12-15T21:11:45.996Z,22.73
2022-12-15T21:12:50.548Z,22.90
2022-12-15T21:13:53.854Z,21.27
2022-12-15T21:14:56.433Z,23.55
2022-12-15T21:16:00.428Z,22.88
2022-12-15T21:17:03.265Z,22.83
2022-12-15T21:18:51.964Z,22.08
2022-12-15T21:19:34.764Z,21.52
2022-12-15T21:20:39.778Z,22.25
2022-12-15T21:21:45.422Z,21.13
2022-12-15T21:22:48.096Z,22.40
2022-12-15T21:23:49.875Z,20.65
2022-12-15T21:24:56.206Z,21.98
2022-12-15T21:26:03.969Z,20.00
2022-12-15T21:27:07.335Z,20.98
2022-12-15T21:28:11.394Z,21.48
2022-12-15T21:29:15.979Z,21.20
2022-12-15T21:30:21.597Z,22.75
2022-12-15T21:31:24.714Z,22.50
2022-12-15T21:32:26.431Z,22.23
2022-12-15T21:33:29.046Z,22.88
2022-12-15T21:34:32.664Z,23.17
2022-12-15T21:35:37.466Z,22.95
2022-12-15T21:36:41.602Z,22.05
2022-12-15T21:37:47.025Z,22.52
2022-12-15T21:38:50.843Z,21.55
2022-12-15T21:39:55.281Z,21.55
2022-12-15T21:41:01.561Z,21.27
2022-12-15T21:42:06.473Z,20.85
2022-12-15T21:43:11.751Z,20.88
2022-12-15T21:44:14.182Z,21.42
2022-12-15T21:45:19.310Z,21.45
2022-12-15T21:46:28.400Z,20.95
2022-12-15T21:48:00.334Z,21.20
2022-12-15T21:49:18.438Z,20.02
2022-12-15T21:50:20.351Z,20.70
2022-12-15T21:51:23.026Z,20.42
2022-12-15T21:52:27.503Z,22.95
2022-12-15T21:53:30.292Z,22.80
2022-12-15T21:54:38.444Z,22.92
2022-12-15T21:55:41.073Z,22.33
2022-12-15T21:56:45.195Z,22.05
2022-12-15T21:57:46.937Z,22.48
2022-12-15T21:58:51.432Z,22.15
2022-12-15T21:59:53.449Z,21.10
2022-12-15T22:00:57.958Z,23.27
2022-12-15T22:02:00.354Z,21.83
2022-12-15T22:03:03.297Z,21.17
2022-12-15T22:04:16.549Z,21.23
2022-12-15T22:05:22.661Z,21.25
2022-12-15T22:06:26.774Z,21.70
2022-12-15T22:07:29.403Z,21.23
2022-12-15T22:08:31.335Z,23.35
2022-12-15T22:09:34.257Z,21.33
2022-12-15T22:10:35.818Z,21.30
2022-12-15T22:11:39.874Z,22.70
2022-12-15T22:12:45.833Z,23.08
2022-12-15T22:13:48.387Z,20.88
2022-12-15T22:14:52.046Z,22.67
2022-12-15T22:15:54.672Z,22.38
2022-12-15T22:16:58.211Z,21.65
2022-12-15T22:17:59.778Z,22.25
2022-12-15T22:19:04.453Z,21.98
2022-12-15T22:20:13.979Z,21.73
2022-12-15T22:21:16.799Z,22.80
2022-12-15T22:22:18.470Z,23.50
2022-12-15T22:23:21.377Z,21.95
2022-12-15T22:24:23.938Z,23.15
2022-12-15T22:25:25.915Z,21.83
2022-12-15T22:26:32.620Z,21.42
2022-12-15T22:27:34.535Z,21.60
2022-12-15T22:28:41.359Z,21.13
2022-12-15T22:29:42.991Z,21.55
2022-12-15T22:30:45.686Z,22.15
2022-12-15T22:31:49.450Z,21.05
2022-12-15T22:32:51.157Z,22.02
2022-12-15T22:33:54.456Z,21.63
2022-12-15T22:34:56.792Z,21.80
2022-12-15T22:35:59.807Z,22.25
2022-12-15T22:37:01.401Z,22.40
2022-12-15T22:38:03.967Z,22.30
2022-12-15T22:39:10.832Z,21.45
2022-12-15T22:40:15.233Z,23.75
2022-12-15T22:41:20.245Z,21.88
2022-12-15T22:42:22.932Z,23.27
2022-12-15T22:43:32.724Z,24.08
2022-12-15T22:44:38.675Z,17.95
2022-12-15T22:45:42.711Z,22.80
2022-12-15T22:46:45.790Z,22.70
2022-12-15T22:47:49.356Z,22.45
2022-12-15T22:50:19.933Z,21.40
2022-12-15T22:51:21.904Z,22.02
2022-12-15T22:52:24.532Z,21.85
2022-12-15T22:53:29.384Z,22.95
2022-12-15T22:54:46.481Z,22.52
2022-12-15T22:55:50.925Z,22.73
2022-12-15T22:56:58.586Z,22.20
2022-12-15T22:58:03.010Z,22.88
2022-12-15T22:59:08.897Z,22.73
2022-12-15T23:00:15.352Z,23.45
2022-12-15T23:01:17.905Z,21.45
2022-12-15T23:02:19.758Z,22.77
2022-12-15T23:03:22.446Z,23.50
2022-12-15T23:04:24.531Z,22.85
2022-12-15T23:05:27.663Z,23.13
2022-12-15T23:06:29.335Z,22.92
2022-12-15T23:07:32.959Z,23.17
2022-12-15T23:08:34.523Z,23.77
2022-12-15T23:09:37.170Z,24.42
2022-12-15T23:10:57.527Z,23.20
2022-12-15T23:11:59.196Z,19.17
2022-12-15T23:13:00.981Z,22.45
2022-12-15T23:14:04.247Z,23.45
2022-12-15T23:15:25.949Z,23.20
2022-12-15T23:16:29.050Z,22.20
2022-12-15T23:17:32.157Z,22.13
2022-12-15T23:18:33.795Z,22.23
2022-12-15T23:19:36.495Z,23.40
2022-12-15T23:20:38.538Z,23.17
2022-12-15T23:21:41.289Z,22.67
2022-12-15T23:22:43.063Z,23.15
2022-12-15T23:23:45.876Z,23.20
2022-12-15T23:24:47.478Z,23.13
2022-12-15T23:25:50.088Z,22.60
2022-12-15T23:26:53.023Z,23.10
2022-12-15T23:27:55.490Z,21.55
2022-12-15T23:28:58.107Z,22.23
2022-12-15T23:29:59.767Z,20.73
2022-12-15T23:31:02.685Z,21.08
2022-12-15T23:32:06.318Z,21.38
2022-12-15T23:33:08.898Z,19.67
2022-12-15T23:34:10.688Z,20.80
2022-12-15T23:35:13.467Z,20.10
2022-12-15T23:36:15.143Z,20.17
2022-12-15T23:37:17.833Z,19.80
2022-12-15T23:38:19.871Z,20.65
2022-12-15T23:39:22.476Z,19.92
2022-12-15T23:40:24.967Z,20.50
2022-12-15T23:41:29.160Z,19.88
2022-12-15T23:42:30.848Z,21.17
2022-12-15T23:43:35.293Z,20.65
2022-12-15T23:44:37.381Z,20.77
2022-12-15T23:45:40.442Z,19.38
2022-12-15T23:46:42.339Z,20.08
2022-12-15T23:47:46.435Z,19.80
2022-12-15T23:48:49.068Z,19.88
2022-12-15T23:49:51.051Z,19.42
2022-12-15T23:51:02.872Z,20.55
2022-12-15T23:52:04.908Z,20.23
2022-12-15T23:53:08.655Z,21.40
2022-12-15T23:54:11.302Z,21.60
2022-12-15T23:55:12.985Z,21.25